Time;durP1;ratioP1;P1;durP2;ratioP2;P2;SDS_P1;SDS_P2;PMS_P1;PMS_P2;Temp;Humidity;BMP_temperature;BMP_pressure;BME280_temperature;BME280_humidity;BME280_pressure;Samples;Min_cycle;Max_cycle;Signal;HPM_P1;HPM_P2
2022/11/05 00:09:59;;;;;;;10.02;2.83;;;;;;;;;;6183612;23;20024;-73
2022/11/05 00:18:02;;;;;;;7.95;2.30;;;;;;;;;;6148524;23;20063;-73
2022/11/05 00:20:28;;;;;;;6.38;2.60;;;;;;;;;;6158766;23;20017;-73
2022/11/05 00:25:56;;;;;;;11.77;2.67;;;;;;;;;;6183755;23;20025;-73
2022/11/05 00:28:23;;;;;;;14.82;3.08;;;;;;;;;;6183806;23;20021;-73
2022/11/05 00:30:49;;;;;;;12.80;2.70;;;;;;;;;;6183645;23;20019;-73
2022/11/05 00:33:15;;;;;;;10.13;2.75;;;;;;;;;;6183792;23;20021;-73
2022/11/05 00:35:41;;;;;;;12.93;2.47;;;;;;;;;;6183605;23;20347;-73
2022/11/05 00:38:08;;;;;;;10.85;2.95;;;;;;;;;;6183541;23;20514;-73
2022/11/05 00:40:34;;;;;;;12.18;3.00;;;;;;;;;;6183478;23;20013;-73
2022/11/05 00:45:44;;;;;;;11.15;2.30;;;;;;;;;;6183445;23;20017;-73
2022/11/05 00:50:55;;;;;;;6.97;2.75;;;;;;;;;;6183538;23;20025;-72
2022/11/05 00:53:21;;;;;;;6.00;2.38;;;;;;;;;;6183476;23;20017;-72
2022/11/05 00:55:47;;;;;;;9.15;2.50;;;;;;;;;;6183605;23;20043;-73
2022/11/05 00:58:14;;;;;;;9.50;2.53;;;;;;;;;;6158785;23;20072;-73
2022/11/05 01:00:42;;;;;;;11.00;2.92;;;;;;;;;;6183200;23;20096;-73
2022/11/05 01:03:09;;;;;;;7.00;2.30;;;;;;;;;;6183386;23;20021;-73
2022/11/05 01:05:43;;;;;;;9.98;2.25;;;;;;;;;;6183353;23;20009;-72
2022/11/05 01:08:10;;;;;;;7.53;2.28;;;;;;;;;;6185004;23;20351;-72
2022/11/05 01:10:40;;;;;;;9.02;2.35;;;;;;;;;;6183208;23;20017;-72
2022/11/05 01:13:06;;;;;;;7.30;2.40;;;;;;;;;;6183553;23;20048;-72
2022/11/05 01:15:34;;;;;;;5.97;2.25;;;;;;;;;;6183164;23;20027;-73
2022/11/05 01:18:00;;;;;;;7.40;2.22;;;;;;;;;;6158609;23;20025;-73
2022/11/05 01:20:26;;;;;;;6.93;2.03;;;;;;;;;;6158340;23;20013;-73
2022/11/05 01:22:52;;;;;;;7.47;2.28;;;;;;;;;;6183451;23;20021;-73
2022/11/05 01:25:18;;;;;;;10.68;2.25;;;;;;;;;;6183399;23;20017;-73
2022/11/05 01:27:44;;;;;;;8.85;2.40;;;;;;;;;;6183390;23;20314;-73
2022/11/05 01:30:10;;;;;;;6.65;2.25;;;;;;;;;;6184397;23;20025;-73
2022/11/05 01:32:37;;;;;;;8.68;2.47;;;;;;;;;;6185517;23;20088;-73
2022/11/05 01:35:04;;;;;;;9.75;2.67;;;;;;;;;;6185410;23;20043;-73
2022/11/05 01:37:30;;;;;;;10.90;2.55;;;;;;;;;;6185660;23;20021;-72
2022/11/05 01:39:56;;;;;;;8.60;2.67;;;;;;;;;;6185199;23;20027;-73
2022/11/05 01:42:24;;;;;;;9.73;2.38;;;;;;;;;;6185328;23;20459;-73
2022/11/05 01:44:58;;;;;;;15.52;2.33;;;;;;;;;;6185319;23;20497;-73
2022/11/05 01:47:27;;;;;;;12.45;2.13;;;;;;;;;;6185411;23;20083;-73
2022/11/05 01:49:54;;;;;;;8.88;2.30;;;;;;;;;;6185085;23;20016;-73
2022/11/05 01:52:21;;;;;;;8.43;2.55;;;;;;;;;;6185213;23;20016;-73
2022/11/05 01:54:47;;;;;;;11.30;2.30;;;;;;;;;;6160707;23;20017;-73
2022/11/05 01:57:14;;;;;;;6.15;2.05;;;;;;;;;;6185082;23;20506;-72
2022/11/05 01:59:42;;;;;;;6.28;2.17;;;;;;;;;;6185008;23;20017;-72
2022/11/05 02:02:08;;;;;;;6.53;2.45;;;;;;;;;;6196841;23;20024;-72
2022/11/05 02:04:39;;;;;;;10.00;3.08;;;;;;;;;;6220195;23;20016;-72
2022/11/05 02:07:06;;;;;;;14.25;3.08;;;;;;;;;;6220096;23;20389;-72
2022/11/05 02:09:41;;;;;;;5.78;2.70;;;;;;;;;;6219871;23;20377;-72
2022/11/05 02:12:08;;;;;;;5.50;2.10;;;;;;;;;;6220172;23;20016;-72
2022/11/05 02:14:34;;;;;;;7.38;2.05;;;;;;;;;;6220055;23;20012;-72
2022/11/05 02:17:06;;;;;;;9.13;2.72;;;;;;;;;;6220209;23;20319;-72
2022/11/05 02:19:51;;;;;;;7.63;2.15;;;;;;;;;;6220152;23;20048;-73
2022/11/05 02:22:20;;;;;;;8.90;2.05;;;;;;;;;;6220011;23;20023;-72
2022/11/05 02:24:46;;;;;;;10.30;2.00;;;;;;;;;;6220145;23;20012;-72
2022/11/05 02:27:18;;;;;;;8.00;2.20;;;;;;;;;;6220061;23;20447;-73
2022/11/05 02:29:53;;;;;;;7.40;1.85;;;;;;;;;;6220076;23;20012;-72
2022/11/05 02:32:19;;;;;;;8.10;1.92;;;;;;;;;;6220114;23;20023;-72
2022/11/05 02:34:45;;;;;;;8.07;2.38;;;;;;;;;;6220000;23;20043;-72
2022/11/05 02:37:11;;;;;;;8.05;2.00;;;;;;;;;;6219862;23;20147;-72
2022/11/05 02:39:58;;;;;;;7.70;2.17;;;;;;;;;;6220010;23;20044;-73
2022/11/05 02:42:44;;;;;;;11.00;2.05;;;;;;;;;;6219860;23;20012;-73
2022/11/05 02:45:17;;;;;;;4.88;1.90;;;;;;;;;;6219906;23;20012;-73
2022/11/05 02:47:43;;;;;;;3.20;2.03;;;;;;;;;;6219853;23;20051;-73
2022/11/05 02:50:15;;;;;;;5.13;1.80;;;;;;;;;;6219900;23;20047;-73
2022/11/05 02:53:08;;;;;;;6.93;2.53;;;8.10;99.90;;;;;;6219973;23;20013;-73
2022/11/05 02:55:37;;;;;;;5.57;1.90;;;;;;;;;;6219815;23;20090;-73
2022/11/05 02:58:04;;;;;;;8.15;1.80;;;;;;;;;;6219748;23;20022;-73
2022/11/05 03:00:43;;;;;;;4.25;1.50;;;;;;;;;;6219682;23;20020;-73
2022/11/05 03:03:32;;;;;;;2.38;1.40;;;;;;;;;;6219396;23;20451;-73
2022/11/05 03:06:04;;;;;;;7.82;1.60;;;;;;;;;;6204295;23;20442;-73
2022/11/05 03:08:47;;;;;;;5.00;1.45;;;;;;;;;;6219738;23;20077;-73
2022/11/05 03:11:14;;;;;;;;;;;8.20;99.90;;;;;;6220119;23;20016;-73
2022/11/05 03:13:49;;;;;;;3.40;1.65;;;;;;;;;;6219495;23;19919;-73
2022/11/05 03:16:18;;;;;;;4.43;1.60;;;;;;;;;;6219402;23;20091;-73
2022/11/05 03:18:44;;;;;;;5.47;1.60;;;;;;;;;;6219393;23;20016;-73
2022/11/05 03:21:10;;;;;;;6.72;1.73;;;;;;;;;;6219352;23;20016;-73
2022/11/05 03:23:39;;;;;;;3.15;1.25;;;;;;;;;;6219088;23;20012;-73
2022/11/05 03:26:05;;;;;;;6.32;1.70;;;;;;;;;;6218514;23;20019;-73
2022/11/05 03:28:33;;;;;;;6.13;1.45;;;;;;;;;;6219296;23;20012;-73
2022/11/05 03:31:01;;;;;;;2.25;1.40;;;;;;;;;;6219422;23;20023;-73
2022/11/05 03:33:29;;;;;;;2.58;1.38;;;;;;;;;;6219169;23;20012;-73
2022/11/05 03:35:58;;;;;;;6.63;1.30;;;;;;;;;;6219367;23;20087;-73
2022/11/05 03:38:27;;;;;;;8.80;1.65;;;;;;;;;;6219199;23;20063;-73
2022/11/05 03:40:54;;;;;;;5.10;1.30;;;;;;;;;;6219199;23;20458;-73
2022/11/05 03:43:22;;;;;;;4.50;1.38;;;;;;;;;;6219206;23;20426;-73
2022/11/05 03:45:53;;;;;;;9.13;1.75;;;;;;;;;;6219275;23;20015;-73
2022/11/05 03:48:20;;;;;;;4.90;1.45;;;;;;;;;;6219248;23;20066;-73
2022/11/05 03:50:52;;;;;;;8.13;1.70;;;;;;;;;;6219112;23;20012;-73
2022/11/05 03:53:22;;;;;;;3.47;1.40;;;;;;;;;;6218744;23;20019;-73
2022/11/05 03:55:52;;;;;;;4.68;1.50;;;;;;;;;;6218998;23;20087;-72
2022/11/05 03:58:19;;;;;;;6.47;1.67;;;;;;;;;;6218967;23;20026;-72
2022/11/05 04:00:45;;;;;;;7.53;1.77;;;;;;;;;;6219106;23;20069;-73
2022/11/05 04:03:11;;;;;;;4.85;1.50;;;;;;;;;;6197306;23;20028;-73
2022/11/05 04:05:37;;;;;;;5.57;1.80;;;;;;;;;;6183800;23;20025;-73
2022/11/05 04:13:32;;;;;;;7.57;1.60;;;;;;;;;;6162868;23;20048;-73
2022/11/05 04:18:43;;;;;;;5.20;1.70;;;;;;;;;;6183910;23;20021;-73
2022/11/05 04:24:07;;;;;;;3.83;1.52;;;;;;;;;;6183681;23;20055;-72
2022/11/05 04:26:33;;;;;;;4.57;1.70;;;;;;;;;;6183595;23;20320;-72
2022/11/05 04:31:44;;;;;;;10.18;1.90;;;;;;;;;;6182926;23;20021;-73
2022/11/05 04:34:10;;;;;;;7.60;2.00;;;;;;;;;;6181914;23;20028;-73
2022/11/05 04:36:36;;;;;;;3.67;1.85;;;;;;;;;;6181910;23;20095;-73
2022/11/05 04:39:02;;;;;;;5.55;1.90;;;;;;;;;;6158849;23;20028;-73
2022/11/05 04:41:28;;;;;;;7.18;2.13;;;;;;;;;;6183587;23;20013;-73
2022/11/05 04:43:54;;;;;;;7.78;2.00;;;;;;;;;;6183650;23;20016;-73
2022/11/05 04:46:20;;;;;;;3.22;2.47;;;;;;;;;;6183640;23;20023;-73
2022/11/05 04:48:46;;;;;;;3.55;1.90;;;;;;;;;;6183502;23;20009;-73
2022/11/05 04:51:12;;;;;;;9.00;2.00;;;;;;;;;;6183444;23;20056;-73
2022/11/05 04:53:38;;;;;;;4.40;1.80;;;;;;;;;;6158994;23;20020;-73
2022/11/05 04:56:11;;;;;;;6.85;1.90;;;;;;;;;;6183447;23;20021;-72
2022/11/05 04:58:38;;;;;;;8.32;1.95;;;;;;;;;;6183483;23;20017;-72
2022/11/05 05:01:04;;;;;;;5.93;1.77;;;;;;;;;;6183345;23;20025;-72
2022/11/05 05:03:30;;;;;;;8.20;2.05;;;;;;;;;;6186558;23;20395;-72
2022/11/05 05:05:59;;;;;;;9.88;2.28;;;;;;;;;;6158899;23;20016;-72
2022/11/05 05:08:25;;;;;;;5.97;2.25;;;;;;;;;;6158641;23;20432;-72
2022/11/05 05:10:51;;;;;;;9.00;3.38;;;;;;;;;;6158763;23;20463;-72
2022/11/05 05:13:18;;;;;;;8.15;2.42;;;;;;;;;;6183459;23;20376;-72
2022/11/05 05:15:44;;;;;;;4.55;2.10;;;;;;;;;;6183418;23;20439;-73
2022/11/05 05:18:10;;;;;;;6.95;1.85;;;;;;;;;;6183390;23;20454;-72
2022/11/05 05:23:20;;;;;;;3.53;2.20;;;;;;;;;;6183249;23;20025;-72
2022/11/05 05:25:46;;;;;;;6.70;2.30;;;;;;;;;;6183390;23;20097;-72
2022/11/05 05:28:12;;;;;;;8.48;2.20;;;;;;;;;;6183184;23;20013;-72
2022/11/05 05:30:38;;;;;;;6.63;1.73;;;;;;;;;;6183349;23;20017;-72
2022/11/05 05:33:04;;;;;;;4.95;1.67;;;;;;;;;;6183241;23;20044;-72
2022/11/05 05:35:30;;;;;;;7.50;2.00;;;;;;;;;;6183325;23;20539;-72
2022/11/05 05:37:57;;;;;;;7.15;2.30;;;;;;;;;;6183236;23;20049;-73
2022/11/05 05:40:23;;;;;;;3.72;1.88;;;;;;;;;;6158457;23;20347;-72
2022/11/05 05:42:54;;;;;;;9.70;1.83;;;;;;;;;;6183322;23;20048;-72
2022/11/05 05:45:20;;;;;;;8.50;2.00;;;;;;;;;;6158465;23;20013;-72
2022/11/05 05:47:46;;;;;;;4.50;1.73;;;;;;;;;;6183225;23;20104;-72
2022/11/05 05:50:12;;;;;;;6.53;1.95;;;;;;;;;;6183294;23;20071;-72
2022/11/05 05:52:38;;;;;;;6.03;1.58;;;;;;;;;;6183078;23;20486;-72
2022/11/05 05:55:04;;;;;;;7.40;1.80;;;;;;;;;;6158627;23;20384;-72
2022/11/05 05:57:30;;;;;;;5.30;2.20;;;;;;;;;;6183261;23;20032;-72
2022/11/05 05:59:56;;;;;;;7.82;1.70;;;;;;;;;;6183141;23;20013;-72
2022/11/05 06:02:22;;;;;;;7.50;1.80;;;;;;;;;;6164214;23;20439;-72
2022/11/05 06:04:48;;;;;;;6.53;1.70;;;;;;;;;;6218215;23;20047;-72
2022/11/05 06:07:14;;;;;;;4.82;2.25;;;;;;;;;;6218220;23;20012;-72
2022/11/05 06:09:41;;;;;;;3.08;1.95;;;;;;;;;;6218285;23;20024;-72
2022/11/05 06:12:07;;;;;;;4.35;2.10;;;;;;;;;;6218331;23;20099;-72
2022/11/05 06:14:33;;;;;;;4.47;2.05;;;;;;;;;;6218325;23;20385;-73
2022/11/05 06:16:59;;;;;;;5.85;2.72;;;;;;;;;;6219872;23;20066;-72
2022/11/05 06:19:25;;;;;;;7.95;2.60;;;;;;;;;;6220064;23;20051;-72
2022/11/05 06:21:51;;;;;;;5.10;2.00;;;;;;;;;;6220107;23;20008;-72
2022/11/05 06:24:17;;;;;;;6.35;2.58;;;;;;;;;;6220078;23;20047;-72
2022/11/05 06:26:43;;;;;;;5.75;2.47;;;;;;;;;;6219901;23;20012;-72
2022/11/05 06:29:10;;;;;;;5.53;2.20;;;;;;;;;;6194816;23;20023;-73
2022/11/05 06:31:36;;;;;;;8.55;2.78;;;;;;;;;;6219911;23;20446;-70
2022/11/05 06:34:02;;;;;;;5.82;2.30;;;;;;;;;;6219481;23;20020;-72
2022/11/05 06:36:28;;;;;;;6.72;2.80;;;;;;;;;;6219716;23;20020;-71
2022/11/05 06:38:54;;;;;;;6.35;2.05;;;;;;;;;;6220064;23;20073;-71
2022/11/05 06:41:20;;;;;;;3.15;2.50;;;;;;;;;;6220391;23;20026;-71
2022/11/05 06:43:46;;;;;;;6.68;2.47;;;;;;;;;;6219401;23;20016;-71
2022/11/05 06:46:12;;;;;;;5.75;2.88;;;;;;;;;;6220028;23;20027;-71
2022/11/05 06:48:39;;;;;;;6.65;2.42;;;;;;;;;;6220394;23;20130;-71
2022/11/05 06:51:05;;;;;;;7.05;2.60;;;;;;;;;;6220174;23;20020;-71
2022/11/05 06:53:33;;;;;;;6.35;3.13;;;;;;;;;;6220419;23;20346;-71
2022/11/05 06:56:06;;;;;;;5.40;2.72;;;;;;;;;;6220026;23;20477;-71
2022/11/05 06:58:32;;;;;;;5.38;2.70;;;;;;;;;;6220277;23;20403;-71
2022/11/05 07:01:07;;;;;;;4.20;2.90;;;;;;;;;;6220075;23;20054;-72
2022/11/05 07:03:35;;;;;;;4.07;3.00;;;;;;;;;;6220000;23;20047;-68
2022/11/05 07:06:01;;;;;;;6.60;2.90;;;;;;;;;;6220000;23;20016;-72
2022/11/05 07:08:31;;;;;;;8.00;2.67;;;;;;;;;;6218192;23;20044;-72
2022/11/05 07:10:57;;;;;;;4.53;2.58;;;;;;;;;;6217887;23;20051;-71
2022/11/05 07:13:23;;;;;;;9.93;3.47;;;;;;;;;;6217331;23;20054;-71
2022/11/05 07:15:50;;;;;;;5.47;2.85;;;;;;;;;;6217902;23;20051;-71
2022/11/05 07:18:16;;;;;;;4.85;2.47;;;;;;;;;;6217675;23;20016;-71
2022/11/05 07:20:42;;;;;;;4.90;2.83;;;;;;;;;;6217537;23;20073;-70
2022/11/05 07:23:10;;;;;;;6.72;2.92;;;;;;;;;;6192539;23;20020;-71
2022/11/05 07:25:36;;;;;;;8.80;2.60;;;;;;;;;;6217177;23;20018;-71
2022/11/05 07:28:03;;;;;;;4.40;2.47;;;;;;;;;;6243240;23;20016;-72
2022/11/05 07:30:29;;;;;;;5.13;2.85;;;;;;;;;;6217832;23;20085;-71
2022/11/05 07:32:55;;;;;;;6.75;2.80;;;;;;;;;;6216667;23;20020;-71
2022/11/05 07:35:21;;;;;;;6.35;2.60;;;;;;;;;;6216360;23;20051;-71
2022/11/05 07:37:48;;;;;;;8.07;2.50;;;;;;;;;;6217441;23;20091;-71
2022/11/05 07:40:16;;;;;;;9.68;2.60;;;;;;;;;;6216731;23;20454;-71
2022/11/05 07:42:43;;;;;;;6.55;2.60;;;;;;;;;;6191910;23;20019;-71
2022/11/05 07:45:10;;;;;;;6.20;2.63;;;;;;;;;;6216206;23;20012;-71
2022/11/05 07:47:37;;;;;;;3.90;2.53;;;;;;;;;;6217366;23;20458;-71
2022/11/05 07:50:03;;;;;;;6.55;2.50;;;;;;;;;;6216463;23;20020;-71
2022/11/05 07:52:31;;;;;;;4.80;2.50;;;;;;;;;;6216259;23;20020;-71
2022/11/05 07:54:57;;;;;;;4.68;2.47;;;;;;;;;;6216267;23;20026;-71
2022/11/05 07:57:23;;;;;;;4.05;2.67;;;;;;;;;;6243056;23;20054;-71
2022/11/05 07:59:49;;;;;;;11.60;4.40;;;;;;;;;;6216177;23;20095;-71
2022/11/05 08:02:15;;;;;;;5.15;2.53;;;;;;;;;;6216180;23;20023;-71
2022/11/05 08:04:42;;;;;;;3.40;2.55;;;;;;;;;;6217253;23;20020;-71
2022/11/05 08:07:08;;;;;;;7.22;2.63;;;;;;;;;;6216821;23;20385;-71
2022/11/05 08:09:34;;;;;;;5.72;2.83;;;;;;;;;;6216265;23;20008;-71
2022/11/05 08:12:00;;;;;;;6.70;3.13;;;;;;;;;;6216100;23;20387;-71
2022/11/05 08:14:26;;;;;;;12.57;3.42;;;;;;;;;;6216256;23;20121;-71
2022/11/05 08:16:52;;;;;;;9.23;3.10;;;;;;;;;;6218495;23;20012;-71
2022/11/05 08:19:18;;;;;;;7.65;3.17;;;;;;;;;;6218453;23;20083;-71
2022/11/05 08:21:44;;;;;;;5.50;3.05;;;;;;;;;;6218987;23;20019;-70
2022/11/05 08:24:10;;;;;;;10.23;2.97;;;;;;;;;;6218211;23;20442;-70
2022/11/05 08:26:36;;;;;;;9.95;3.05;;;;;;;;;;6193749;23;20016;-70
2022/11/05 08:29:03;;;;;;;17.23;3.25;;;;;;;;;;6218610;23;20008;-71
2022/11/05 08:31:30;;;;;;;14.98;5.82;;;;;;;;;;6245161;23;20141;-71
2022/11/05 08:33:56;;;;;;;8.05;3.40;;;;;;;;;;6217418;23;20016;-71
2022/11/05 08:36:22;;;;;;;9.88;3.40;;;;;;;;;;6218717;23;20026;-71
2022/11/05 08:38:48;;;;;;;13.45;3.85;;;;;;;;;;6218560;23;20024;-71
2022/11/05 08:41:15;;;;;;;7.65;4.45;;;;;;;;;;6218390;23;20096;-71
2022/11/05 08:43:41;;;;;;;8.18;3.75;;;;;;;;;;6218546;23;20020;-71
2022/11/05 08:46:07;;;;;;;9.13;3.47;;;;;;;;;;6218595;23;20008;-71
2022/11/05 08:48:33;;;;;;;5.72;2.53;;;;;;;;;;6218348;23;20391;-72
2022/11/05 08:51:00;;;;;;;11.48;3.50;;;;;;;;;;6218435;23;20074;-70
2022/11/05 08:53:26;;;;;;;7.80;3.17;;;;;;;;;;6218434;23;20012;-70
2022/11/05 08:55:56;;;;;;;13.13;3.83;;;;;;;;;;6216904;23;20019;-70
2022/11/05 08:58:22;;;;;;;9.65;3.90;;;;;;;;;;6218259;23;20020;-70
2022/11/05 09:00:49;;;;;;;11.10;3.95;;;;;;;;;;6218374;23;20047;-71
2022/11/05 09:03:15;;;;;;;7.28;3.90;;;;;;;;;;6205356;23;20417;-71
2022/11/05 09:05:42;;;;;;;18.10;3.75;;;;;;;;;;6183312;23;20111;-71
2022/11/05 09:08:12;;;;;;;11.82;3.85;;;;;;;;;;6158685;23;20040;-71
2022/11/05 09:10:38;;;;;;;8.50;3.78;;;;;;;;;;6183062;23;20055;-71
2022/11/05 09:13:05;;;;;;;8.70;3.38;;;;;;;;;;6158464;23;20028;-71
2022/11/05 09:15:32;;;;;;;18.60;5.43;;;;;;;;;;6185473;23;20375;-71
2022/11/05 09:17:58;;;;;;;7.20;3.78;;;;;;;;;;6185414;23;20013;-71
2022/11/05 09:20:24;;;;;;;10.48;3.53;;;;;;;;;;6183788;23;20016;-71
2022/11/05 09:22:51;;;;;;;13.02;4.65;;;;;;;;;;6183727;23;20473;-71
2022/11/05 09:25:17;;;;;;;9.40;3.58;;;;;;;;;;6183726;23;20466;-71
2022/11/05 09:27:43;;;;;;;13.63;3.40;;;;;;;;;;6183565;23;20044;-72
2022/11/05 09:30:10;;;;;;;8.98;3.72;;;;;;;;;;6183825;23;20405;-71
2022/11/05 09:32:36;;;;;;;8.65;3.65;;;;;;;;;;6183711;23;20027;-71
2022/11/05 09:35:02;;;;;;;10.55;4.07;;;;;;;;;;6183812;23;20016;-71
2022/11/05 09:37:29;;;;;;;6.15;3.70;;;;;;;;;;6183679;23;20017;-71
2022/11/05 09:39:55;;;;;;;7.55;3.20;;;;;;;;;;6182506;23;20013;-71
2022/11/05 09:42:24;;;;;;;6.47;3.20;;;;;;;;;;6183617;23;20497;-71
2022/11/05 09:44:50;;;;;;;12.52;3.60;;;;;;;;;;6182243;23;20504;-71
2022/11/05 09:47:24;;;;;;;13.95;3.50;;;;;;;;;;6183814;23;20095;-71
2022/11/05 09:49:54;;;;;;;11.20;3.83;;;;;;;;;;6182629;23;20025;-71
2022/11/05 09:52:22;;;;;;;9.13;3.20;;;;;;;;;;6185389;23;20017;-71
2022/11/05 09:54:49;;;;;;;5.22;3.03;;;;;;;;;;6185142;23;20081;-71
2022/11/05 09:57:23;;;;;;;11.15;3.03;;;;;;;;;;6185173;23;20024;-71
2022/11/05 09:59:54;;;;;;;10.65;3.05;;;;;;;;;;6184966;23;20013;-71
2022/11/05 10:02:21;;;;;;;7.13;3.22;;;;;;;;;;6184968;23;20013;-71
2022/11/05 10:04:49;;;;;;;9.10;3.05;;;;;;;;;;6182920;23;20356;-71
2022/11/05 10:07:17;;;;;;;8.48;2.92;;;;;;;;;;6184496;23;20023;-71
2022/11/05 10:09:49;;;;;;;9.13;3.10;;;;;;;;;;6185497;23;20060;-71
2022/11/05 10:12:20;;;;;;;5.75;2.50;;;;;;;;;;6185649;23;20009;-71
2022/11/05 10:14:48;;;;;;;5.80;2.60;;;;;;;;;;6185128;23;20017;-71
2022/11/05 10:17:17;;;;;;;12.05;3.10;;;;;;;;;;6185053;23;20016;-71
2022/11/05 10:19:46;;;;;;;5.97;2.67;;;;;;;;;;6184979;23;20440;-71
2022/11/05 10:22:15;;;;;;;9.13;2.90;;;;;;;;;;6185397;23;20013;-71
2022/11/05 10:24:42;;;;;;;6.72;2.90;;;;;;;;;;6185302;23;20535;-71
2022/11/05 10:27:12;;;;;;;7.63;2.95;;;;;;;;;;6185652;23;20017;-71
2022/11/05 10:29:38;;;;;;;8.65;2.63;;;;;;;;;;6186900;23;20013;-71
2022/11/05 10:32:06;;;;;;;7.50;2.67;;;;;;;;;;6160413;23;20432;-71
2022/11/05 10:34:33;;;;;;;13.90;2.83;;;;;;;;;;6186815;23;20076;-71
2022/11/05 10:37:00;;;;;;;5.97;2.40;;;;;;;;;;6185283;23;20013;-71
2022/11/05 10:39:29;;;;;;;7.13;2.47;;;;;;;;;;6160496;23;20025;-71
2022/11/05 10:42:13;;;;;;;8.13;2.92;;;;;;;;;;6185115;23;20017;-71
2022/11/05 10:44:39;;;;;;;6.75;2.50;;;;;;;;;;6160777;23;20056;-71
2022/11/05 10:47:21;;;;;;;7.43;2.30;;;;;;;;;;6160116;23;20009;-71
2022/11/05 10:49:53;;;;;;;9.68;3.00;;;;;;;;;;6160210;23;20017;-71
2022/11/05 10:52:21;;;;;;;8.55;2.60;;;;;;;;;;6185176;23;20013;-72
2022/11/05 10:54:48;;;;;;;9.85;2.70;;;;;;;;;;6185587;23;20073;-71
2022/11/05 10:57:48;;;;;;;6.30;2.47;;;;;;;;;;6185077;23;20347;-71
2022/11/05 11:00:14;;;;;;;8.52;2.95;;;;;;;;;;6153033;23;20470;-71
2022/11/05 11:02:47;;;;;;;7.78;2.55;;;;;;;;;;6185548;23;20452;-71
2022/11/05 11:05:34;;;;;;;6.85;2.33;;;12.20;99.90;;;;;;6220100;23;20438;-71
2022/11/05 11:08:03;;;;;;;11.15;2.50;;;;;;;;;;6220185;23;20454;-71
2022/11/05 11:10:35;;;;;;;5.72;2.50;;;;;;;;;;6219878;23;20020;-71
2022/11/05 11:13:02;;;;;;;12.38;2.63;;;;;;;;;;6219752;23;20025;-71
2022/11/05 11:15:31;;;;;;;6.15;2.30;;;;;;;;;;6219447;23;20011;-71
2022/11/05 11:17:57;;;;;;;7.45;2.30;;;;;;;;;;6219862;23;20068;-71
2022/11/05 11:20:26;;;;;;;5.53;2.22;;;;;;;;;;6219706;23;20020;-71
2022/11/05 11:23:05;;;;;;;6.95;2.53;;;;;;;;;;6219681;23;20078;-71
2022/11/05 11:25:37;;;;;;;7.40;1.85;;;;;;;;;;6219839;23;20016;-71
2022/11/05 11:28:04;;;;;;;9.93;2.35;;;;;;;;;;6219474;23;20066;-71
2022/11/05 11:30:31;;;;;;;11.25;2.80;;;;;;;;;;6219900;23;20596;-73
2022/11/05 11:33:11;;;;;;;6.63;2.35;;;;;;;;;;6219836;23;20019;-71
2022/11/05 11:35:38;;;;;;;6.00;2.08;;;;;;;;;;6219790;23;20016;-71
2022/11/05 11:38:05;;;;;;;8.48;2.00;;;;;;;;;;6219328;23;20083;-71
2022/11/05 11:40:33;;;;;;;7.82;2.75;;;;;;;;;;6219740;23;20024;-71
2022/11/05 11:43:01;;;;;;;7.32;2.30;;;;;;;;;;6219595;23;20016;-71
2022/11/05 11:45:31;;;;;;;5.72;1.90;;;;;;;;;;6219370;23;20087;-71
2022/11/05 11:47:57;;;;;;;3.42;1.80;;;;;;;;;;6219423;23;20082;-71
2022/11/05 11:50:38;;;;;;;6.68;1.95;;;;;;;;;;6219085;23;20024;-71
2022/11/05 11:53:17;;;;;;;5.68;1.50;;;;;;;;;;6219558;23;20417;-70
2022/11/05 11:55:55;;;;;;;8.05;2.28;;;;;;;;;;6218881;23;20016;-71
2022/11/05 11:58:22;;;;;;;9.65;1.58;;;;;;;;;;6219076;23;20074;-71
2022/11/05 12:01:11;;;;;;;4.18;1.70;;;;;;;;;;6219011;23;20048;-71
2022/11/05 12:03:40;;;;;;;4.85;1.55;;;;;;;;;;6201614;23;20091;-71
2022/11/05 12:06:06;;;;;;;5.38;1.70;;;;;;;;;;6183953;23;20013;-71
2022/11/05 12:08:47;;;;;;;3.40;1.55;;;;;;;;;;6159111;23;20130;-71
2022/11/05 12:11:13;;;;;;;8.98;2.47;;;;;;;;;;6183794;23;20020;-71
2022/11/05 12:13:49;;;;;;;7.88;2.13;;;;;;;;;;6183639;23;20083;-71
2022/11/05 12:16:19;;;;;;;7.85;2.15;;;;;;;;;;6183806;23;20071;-71
2022/11/05 12:19:00;;;;;;;3.75;1.70;;;;;;;;;;6183807;23;20019;-72
2022/11/05 12:21:42;;;;;;;3.50;1.75;;;;;;;;;;6183885;23;20013;-71
2022/11/05 12:24:17;;;;;;;3.95;2.15;;;;;;;;;;6183878;23;20020;-72
2022/11/05 12:26:46;;;;;;;7.65;1.65;;;;;;;;;;6183814;23;20088;-71
2022/11/05 12:29:24;;;;;;;6.78;1.88;;;;;;;;;;6183812;23;20032;-71
2022/11/05 12:32:09;;;;;;;8.05;2.40;;;;;;;;;;6183529;23;20032;-71
2022/11/05 12:35:04;;;;;;;7.88;2.13;;;11.60;99.90;;;;;;6183641;23;20028;-72
2022/11/05 12:37:37;;;;;;;12.52;3.20;;;;;;;;;;6183697;23;20055;-71
2022/11/05 12:40:09;;;;;;;9.77;2.50;;;;;;;;;;6183822;23;20025;-71
2022/11/05 12:42:44;;;;;;;6.20;2.35;;;;;;;;;;6184353;23;20097;-71
2022/11/05 12:45:37;;;;;;;7.60;2.15;;;;;;;;;;6182748;23;20024;-71
2022/11/05 12:48:18;;;;;;;13.68;2.90;;;;;;;;;;6161686;23;20009;-72
2022/11/05 12:50:47;;;;;;;5.88;2.33;;;;;;;;;;6184127;23;20067;-71
2022/11/05 12:53:33;;;;;;;3.97;2.38;;;;;;;;;;6184210;23;20020;-71
2022/11/05 12:56:03;;;;;;;11.05;2.53;;;;;;;;;;6183861;23;20024;-71
2022/11/05 12:58:43;;;;;;;9.07;2.55;;;;;;;;;;6185895;23;20336;-71
2022/11/05 13:01:17;;;;;;;12.80;2.60;;;;;;;;;;6183900;23;20017;-71
2022/11/05 13:03:47;;;;;;;6.63;2.80;;;;;;;;;;6202080;23;20024;-71
2022/11/05 13:06:18;;;;;;;9.35;2.95;;;;;;;;;;6219141;23;20080;-71
2022/11/05 13:08:47;;;;;;;5.40;2.97;;;;;;;;;;6218887;23;20509;-71
2022/11/05 13:11:19;;;;;;;9.57;4.22;;;;;;;;;;6218920;23;20016;-72
2022/11/05 13:13:48;;;;;;;8.98;3.60;;;;;;;;;;6218757;23;20020;-71
2022/11/05 13:16:30;;;;;;;8.35;3.70;;;;;;;;;;6218974;23;20027;-71
2022/11/05 13:19:04;;;;;;;10.63;3.55;;;;;;;;;;6217549;23;20055;-72
2022/11/05 13:21:30;;;;;;;12.15;3.60;;;;;;;;;;6217323;23;20391;-72
2022/11/05 13:24:13;;;;;;;8.32;3.70;;;;;;;;;;6218345;23;20016;-72
2022/11/05 13:26:42;;;;;;;9.52;4.22;;;;;;;;;;6219542;23;20599;-71
2022/11/05 13:29:13;;;;;;;8.77;3.55;;;;;;;;;;6220268;23;20150;-71
2022/11/05 13:31:41;;;;;;;11.93;4.05;;;;;;;;;;6221233;23;20051;-71
2022/11/05 13:34:11;;;;;;;7.40;3.25;;;;;;;;;;6247878;23;20016;-71
2022/11/05 13:39:36;;;;;;;8.93;3.42;;;;;;;;;;6221023;23;20055;-72
2022/11/05 13:42:08;;;;;;;7.33;3.60;;;;;;;;;;6221117;23;20016;-72
2022/11/05 13:44:53;;;;;;;21.95;4.72;;;;;;;;;;6220986;23;20012;-72
2022/11/05 13:47:31;;;;;;;14.68;4.38;;;;;;;;;;6220928;23;20016;-72
2022/11/05 13:50:07;;;;;;;12.93;3.97;;;;;;;;;;6220636;23;20026;-71
2022/11/05 13:52:34;;;;;;;11.13;3.60;;;;;;;;;;6220731;23;20018;-71
2022/11/05 13:55:29;;;;;;;7.45;3.40;;;;;;;;;;6225095;23;20459;-71
2022/11/05 13:58:13;;;;;;;13.10;3.75;;;;;;;;;;6116238;23;20393;-71
2022/11/05 14:00:44;;;;;;;16.67;3.92;;;;;;;;;;6220423;23;20012;-72
2022/11/05 14:03:16;;;;;;;11.98;3.95;;;;;;;;;;6220168;23;20027;-72
2022/11/05 14:05:42;;;;;;;13.82;3.95;;;;;;;;;;6220760;23;20023;-71
2022/11/05 14:08:16;;;;;;;13.82;4.90;;;;;;;;;;6220758;23;20016;-71
2022/11/05 14:10:56;;;;;;;11.85;3.53;;;;;;;;;;6220616;23;20012;-71
2022/11/05 14:13:27;;;;;;;11.50;4.30;;;;;;;;;;6220494;23;20016;-71
2022/11/05 14:15:57;;;;;;;12.85;3.90;;;;;;;;;;6247708;23;20008;-71
2022/11/05 14:18:23;;;;;;;10.80;4.32;;;;;;;;;;6220706;23;20526;-71
2022/11/05 14:20:58;;;;;;;6.75;3.72;;;;;;;;;;6220621;23;20016;-71
2022/11/05 14:23:24;;;;;;;15.88;4.40;;;;;;;;;;6220502;23;20087;-72
2022/11/05 14:25:50;;;;;;;10.95;3.97;;;;;;;;;;6220485;23;20050;-71
2022/11/05 14:28:35;;;;;;;10.02;3.45;;;;;;;;;;6220620;23;20394;-71
2022/11/05 14:31:19;;;;;;;11.95;3.90;;;;;;;;;;6247472;23;20016;-72
2022/11/05 14:33:55;;;;;;;9.57;4.32;;;;;;;;;;6220383;23;20016;-72
2022/11/05 14:36:21;;;;;;;9.55;3.28;;;;;;;;;;6220162;23;20012;-72
2022/11/05 14:38:55;;;;;;;15.02;5.38;;;;;;;;;;6220368;23;20086;-72
2022/11/05 14:41:21;;;;;;;10.80;3.97;;;;;;;;;;6220261;23;20016;-72
2022/11/05 14:43:52;;;;;;;11.95;3.90;;;;;;;;;;6220179;23;20023;-72
2022/11/05 14:46:19;;;;;;;8.35;3.55;;;;;;;;;;6220518;23;20065;-72
2022/11/05 14:48:53;;;;;;;10.20;3.78;;;;;;;;;;6220392;23;20390;-72
2022/11/05 14:51:31;;;;;;;9.00;3.83;;;;;;;;;;6220465;23;20023;-72
2022/11/05 14:54:13;;;;;;;10.85;3.38;;;;;;;;;;6220320;23;20019;-72
2022/11/05 14:56:43;;;;;;;9.50;3.58;;;;;;;;;;6220295;23;20012;-72
2022/11/05 14:59:21;;;;;;;13.50;3.95;;;;;;;;;;6220230;23;20019;-72
2022/11/05 15:01:47;;;;;;;10.90;3.38;;;;;;;;;;6220220;23;20450;-72
2022/11/05 15:04:23;;;;;;;9.27;4.00;;;;;;;;;;6219940;23;20016;-72
2022/11/05 15:07:01;;;;;;;8.27;3.70;;;;;;;;;;6220173;23;20386;-72
2022/11/05 15:09:32;;;;;;;12.02;4.05;;;;;;;;;;6219964;23;20012;-72
2022/11/05 15:12:02;;;;;;;9.65;3.70;;;;;;;;;;6220153;23;20092;-72
2022/11/05 15:14:33;;;;;;;9.15;3.58;;;;;;;;;;6219991;23;20099;-72
2022/11/05 15:17:03;;;;;;;9.02;3.53;;;;;;;;;;6247497;23;20370;-72
2022/11/05 15:19:30;;;;;;;8.88;3.88;;;;;;;;;;6220110;23;20008;-72
2022/11/05 15:21:58;;;;;;;9.68;4.53;;;;;;;;;;6220083;23;20019;-72
2022/11/05 15:24:28;;;;;;;11.60;3.47;;;;;;;;;;6219665;23;20012;-72
2022/11/05 15:26:54;;;;;;;9.32;3.40;;;;;;;;;;6220015;23;20012;-72
2022/11/05 15:29:23;;;;;;;9.52;3.53;;;;;;;;;;6219940;23;20016;-72
2022/11/05 15:31:50;;;;;;;8.27;3.60;;;;;;;;;;6220043;23;20023;-72
2022/11/05 15:34:23;;;;;;;12.93;3.40;;;;;;;;;;6219910;23;20023;-72